sensor_id;sensor_type;location;lat;lon;timestamp;P1;durP1;ratioP1;P2;durP2;ratioP2
21274;SDS011;36472;52.170;20.884;2023-05-02T00:00:19;9.15;;;6.07;;
21274;SDS011;36472;52.170;20.884;2023-05-02T00:03:08;9.82;;;5.70;;
21274;SDS011;36472;52.170;20.884;2023-05-02T00:05:37;12.02;;;5.53;;
21274;SDS011;36472;52.170;20.884;2023-05-02T00:08:06;9.15;;;5.72;;
21274;SDS011;36472;52.170;20.884;2023-05-02T00:10:35;8.55;;;5.68;;
21274;SDS011;36472;52.170;20.884;2023-05-02T00:13:04;8.15;;;5.75;;
21274;SDS011;36472;52.170;20.884;2023-05-02T00:15:34;10.00;;;5.93;;
21274;SDS011;36472;52.170;20.884;2023-05-02T00:18:03;9.23;;;5.90;;
21274;SDS011;36472;52.170;20.884;2023-05-02T00:20:32;9.55;;;6.30;;
21274;SDS011;36472;52.170;20.884;2023-05-02T00:23:01;12.25;;;6.05;;
21274;SDS011;36472;52.170;20.884;2023-05-02T00:25:30;9.75;;;5.95;;
21274;SDS011;36472;52.170;20.884;2023-05-02T00:27:59;7.07;;;5.20;;
21274;SDS011;36472;52.170;20.884;2023-05-02T00:30:27;10.68;;;6.00;;
21274;SDS011;36472;52.170;20.884;2023-05-02T00:32:58;9.48;;;6.03;;
21274;SDS011;36472;52.170;20.884;2023-05-02T00:35:26;11.13;;;5.95;;
21274;SDS011;36472;52.170;20.884;2023-05-02T00:37:55;10.52;;;5.57;;
21274;SDS011;36472;52.170;20.884;2023-05-02T00:40:26;9.50;;;5.63;;
21274;SDS011;36472;52.170;20.884;2023-05-02T00:42:55;12.02;;;5.85;;
21274;SDS011;36472;52.170;20.884;2023-05-02T00:45:24;10.05;;;5.88;;
21274;SDS011;36472;52.170;20.884;2023-05-02T00:47:53;10.07;;;5.47;;
21274;SDS011;36472;52.170;20.884;2023-05-02T00:50:26;9.88;;;6.05;;
21274;SDS011;36472;52.170;20.884;2023-05-02T00:52:59;9.55;;;6.03;;
21274;SDS011;36472;52.170;20.884;2023-05-02T00:55:30;10.68;;;6.00;;
21274;SDS011;36472;52.170;20.884;2023-05-02T00:58:00;8.23;;;5.60;;
21274;SDS011;36472;52.170;20.884;2023-05-02T01:00:53;9.57;;;6.38;;
21274;SDS011;36472;52.170;20.884;2023-05-02T01:03:45;9.15;;;5.45;;
21274;SDS011;36472;52.170;20.884;2023-05-02T01:06:34;9.32;;;5.28;;
21274;SDS011;36472;52.170;20.884;2023-05-02T01:09:21;11.13;;;5.57;;
21274;SDS011;36472;52.170;20.884;2023-05-02T01:12:03;10.25;;;6.18;;
21274;SDS011;36472;52.170;20.884;2023-05-02T01:14:41;10.80;;;5.55;;
21274;SDS011;36472;52.170;20.884;2023-05-02T01:17:17;10.63;;;5.38;;
21274;SDS011;36472;52.170;20.884;2023-05-02T01:19:52;11.90;;;6.40;;
21274;SDS011;36472;52.170;20.884;2023-05-02T01:22:27;10.13;;;5.90;;
21274;SDS011;36472;52.170;20.884;2023-05-02T01:25:00;8.13;;;5.97;;
21274;SDS011;36472;52.170;20.884;2023-05-02T01:27:42;9.07;;;5.35;;
21274;SDS011;36472;52.170;20.884;2023-05-02T01:30:25;11.02;;;5.45;;
21274;SDS011;36472;52.170;20.884;2023-05-02T01:32:58;11.20;;;5.85;;
21274;SDS011;36472;52.170;20.884;2023-05-02T01:35:30;9.40;;;5.35;;
21274;SDS011;36472;52.170;20.884;2023-05-02T01:38:02;8.68;;;5.57;;
21274;SDS011;36472;52.170;20.884;2023-05-02T01:40:34;8.38;;;5.55;;
21274;SDS011;36472;52.170;20.884;2023-05-02T01:43:05;9.18;;;5.65;;
21274;SDS011;36472;52.170;20.884;2023-05-02T01:45:37;9.20;;;5.68;;
21274;SDS011;36472;52.170;20.884;2023-05-02T01:48:10;8.50;;;5.10;;
21274;SDS011;36472;52.170;20.884;2023-05-02T01:50:42;11.57;;;6.03;;
21274;SDS011;36472;52.170;20.884;2023-05-02T01:53:14;10.07;;;5.30;;
21274;SDS011;36472;52.170;20.884;2023-05-02T01:55:44;8.98;;;5.82;;
21274;SDS011;36472;52.170;20.884;2023-05-02T01:58:15;7.15;;;5.50;;
21274;SDS011;36472;52.170;20.884;2023-05-02T02:00:49;8.27;;;5.63;;
21274;SDS011;36472;52.170;20.884;2023-05-02T02:03:20;10.02;;;6.10;;
21274;SDS011;36472;52.170;20.884;2023-05-02T02:05:52;8.00;;;5.38;;
21274;SDS011;36472;52.170;20.884;2023-05-02T02:08:25;10.90;;;4.93;;
21274;SDS011;36472;52.170;20.884;2023-05-02T02:10:56;9.88;;;5.75;;
21274;SDS011;36472;52.170;20.884;2023-05-02T02:13:33;12.15;;;6.05;;
21274;SDS011;36472;52.170;20.884;2023-05-02T02:16:11;10.80;;;5.32;;
21274;SDS011;36472;52.170;20.884;2023-05-02T02:18:48;8.43;;;5.85;;
21274;SDS011;36472;52.170;20.884;2023-05-02T02:21:23;12.00;;;5.30;;
21274;SDS011;36472;52.170;20.884;2023-05-02T02:23:56;11.70;;;5.65;;
21274;SDS011;36472;52.170;20.884;2023-05-02T02:26:31;8.55;;;5.28;;
21274;SDS011;36472;52.170;20.884;2023-05-02T02:29:00;9.52;;;5.55;;
21274;SDS011;36472;52.170;20.884;2023-05-02T02:31:32;11.80;;;5.40;;
21274;SDS011;36472;52.170;20.884;2023-05-02T02:34:04;9.23;;;5.35;;
21274;SDS011;36472;52.170;20.884;2023-05-02T02:36:35;15.15;;;5.57;;
21274;SDS011;36472;52.170;20.884;2023-05-02T02:39:17;7.20;;;5.03;;
21274;SDS011;36472;52.170;20.884;2023-05-02T02:42:13;7.95;;;5.10;;
21274;SDS011;36472;52.170;20.884;2023-05-02T02:44:53;10.90;;;5.35;;
21274;SDS011;36472;52.170;20.884;2023-05-02T02:47:35;11.00;;;5.60;;
21274;SDS011;36472;52.170;20.884;2023-05-02T02:50:18;9.70;;;5.38;;
21274;SDS011;36472;52.170;20.884;2023-05-02T02:52:55;7.60;;;5.07;;
21274;SDS011;36472;52.170;20.884;2023-05-02T02:55:32;10.30;;;5.78;;
21274;SDS011;36472;52.170;20.884;2023-05-02T02:58:14;8.30;;;5.43;;
21274;SDS011;36472;52.170;20.884;2023-05-02T03:00:57;7.82;;;4.90;;
21274;SDS011;36472;52.170;20.884;2023-05-02T03:03:33;8.05;;;4.97;;
21274;SDS011;36472;52.170;20.884;2023-05-02T03:06:06;11.68;;;6.28;;
21274;SDS011;36472;52.170;20.884;2023-05-02T03:08:39;11.95;;;5.35;;
21274;SDS011;36472;52.170;20.884;2023-05-02T03:11:13;7.75;;;5.32;;
21274;SDS011;36472;52.170;20.884;2023-05-02T03:13:42;9.45;;;5.80;;
21274;SDS011;36472;52.170;20.884;2023-05-02T03:16:23;8.82;;;5.30;;
21274;SDS011;36472;52.170;20.884;2023-05-02T03:19:08;8.80;;;5.25;;
21274;SDS011;36472;52.170;20.884;2023-05-02T03:21:37;8.02;;;5.43;;
21274;SDS011;36472;52.170;20.884;2023-05-02T03:24:12;7.30;;;5.63;;
21274;SDS011;36472;52.170;20.884;2023-05-02T03:26:44;10.75;;;5.07;;
21274;SDS011;36472;52.170;20.884;2023-05-02T03:29:18;13.55;;;5.53;;
21274;SDS011;36472;52.170;20.884;2023-05-02T03:31:46;8.82;;;5.57;;
21274;SDS011;36472;52.170;20.884;2023-05-02T03:34:17;10.95;;;5.32;;
21274;SDS011;36472;52.170;20.884;2023-05-02T03:36:49;7.07;;;5.22;;
21274;SDS011;36472;52.170;20.884;2023-05-02T03:39:19;9.20;;;5.43;;
21274;SDS011;36472;52.170;20.884;2023-05-02T03:41:48;9.23;;;5.53;;
21274;SDS011;36472;52.170;20.884;2023-05-02T03:44:21;10.23;;;5.47;;
21274;SDS011;36472;52.170;20.884;2023-05-02T03:46:50;10.32;;;5.13;;
21274;SDS011;36472;52.170;20.884;2023-05-02T03:49:20;8.88;;;5.43;;
21274;SDS011;36472;52.170;20.884;2023-05-02T03:51:51;9.82;;;5.57;;
21274;SDS011;36472;52.170;20.884;2023-05-02T03:54:25;8.65;;;5.32;;
21274;SDS011;36472;52.170;20.884;2023-05-02T03:56:54;8.70;;;5.60;;
21274;SDS011;36472;52.170;20.884;2023-05-02T03:59:30;7.78;;;5.70;;
21274;SDS011;36472;52.170;20.884;2023-05-02T04:02:08;10.35;;;5.47;;
21274;SDS011;36472;52.170;20.884;2023-05-02T04:04:46;11.40;;;5.72;;
21274;SDS011;36472;52.170;20.884;2023-05-02T04:07:19;6.45;;;5.35;;
21274;SDS011;36472;52.170;20.884;2023-05-02T04:09:55;9.60;;;5.43;;
21274;SDS011;36472;52.170;20.884;2023-05-02T04:12:25;6.97;;;4.72;;
21274;SDS011;36472;52.170;20.884;2023-05-02T04:14:55;10.27;;;5.55;;
21274;SDS011;36472;52.170;20.884;2023-05-02T04:17:28;7.47;;;5.15;;
21274;SDS011;36472;52.170;20.884;2023-05-02T04:19:58;8.50;;;5.50;;
21274;SDS011;36472;52.170;20.884;2023-05-02T04:22:32;7.70;;;4.85;;
21274;SDS011;36472;52.170;20.884;2023-05-02T04:25:05;9.30;;;5.47;;
21274;SDS011;36472;52.170;20.884;2023-05-02T04:27:37;9.10;;;5.90;;
21274;SDS011;36472;52.170;20.884;2023-05-02T04:30:10;8.32;;;5.60;;
21274;SDS011;36472;52.170;20.884;2023-05-02T04:32:42;8.75;;;5.40;;
21274;SDS011;36472;52.170;20.884;2023-05-02T04:35:13;9.55;;;5.50;;
21274;SDS011;36472;52.170;20.884;2023-05-02T04:37:43;9.25;;;6.18;;
21274;SDS011;36472;52.170;20.884;2023-05-02T04:40:13;8.07;;;5.25;;
21274;SDS011;36472;52.170;20.884;2023-05-02T04:42:43;7.20;;;5.38;;
21274;SDS011;36472;52.170;20.884;2023-05-02T04:45:19;9.75;;;5.90;;
21274;SDS011;36472;52.170;20.884;2023-05-02T04:47:49;9.52;;;5.53;;
21274;SDS011;36472;52.170;20.884;2023-05-02T04:50:19;9.07;;;5.75;;
21274;SDS011;36472;52.170;20.884;2023-05-02T04:52:48;10.05;;;6.15;;
21274;SDS011;36472;52.170;20.884;2023-05-02T04:55:19;10.45;;;5.70;;
21274;SDS011;36472;52.170;20.884;2023-05-02T04:57:48;13.10;;;5.70;;
21274;SDS011;36472;52.170;20.884;2023-05-02T05:00:18;8.70;;;5.22;;
21274;SDS011;36472;52.170;20.884;2023-05-02T05:02:47;8.52;;;5.55;;
21274;SDS011;36472;52.170;20.884;2023-05-02T05:05:17;10.48;;;5.45;;
21274;SDS011;36472;52.170;20.884;2023-05-02T05:07:47;8.45;;;5.15;;
21274;SDS011;36472;52.170;20.884;2023-05-02T05:10:18;11.48;;;5.68;;
21274;SDS011;36472;52.170;20.884;2023-05-02T05:12:47;9.55;;;5.30;;
21274;SDS011;36472;52.170;20.884;2023-05-02T05:15:17;11.05;;;5.40;;
21274;SDS011;36472;52.170;20.884;2023-05-02T05:17:53;9.60;;;5.53;;
21274;SDS011;36472;52.170;20.884;2023-05-02T05:20:22;10.68;;;5.78;;
21274;SDS011;36472;52.170;20.884;2023-05-02T05:22:56;11.23;;;5.60;;
21274;SDS011;36472;52.170;20.884;2023-05-02T05:25:26;9.43;;;5.40;;
21274;SDS011;36472;52.170;20.884;2023-05-02T05:27:58;10.25;;;4.93;;
21274;SDS011;36472;52.170;20.884;2023-05-02T05:30:28;7.68;;;4.75;;
21274;SDS011;36472;52.170;20.884;2023-05-02T05:32:59;8.60;;;6.03;;
21274;SDS011;36472;52.170;20.884;2023-05-02T05:35:28;7.80;;;5.22;;
21274;SDS011;36472;52.170;20.884;2023-05-02T05:38:00;9.07;;;4.85;;
21274;SDS011;36472;52.170;20.884;2023-05-02T05:40:33;6.40;;;5.10;;
21274;SDS011;36472;52.170;20.884;2023-05-02T05:43:03;8.38;;;5.43;;
21274;SDS011;36472;52.170;20.884;2023-05-02T05:45:35;8.88;;;5.03;;
21274;SDS011;36472;52.170;20.884;2023-05-02T05:48:05;7.55;;;5.47;;
21274;SDS011;36472;52.170;20.884;2023-05-02T05:50:40;6.50;;;4.22;;
21274;SDS011;36472;52.170;20.884;2023-05-02T05:53:10;5.93;;;4.70;;
21274;SDS011;36472;52.170;20.884;2023-05-02T05:55:41;10.30;;;5.40;;
21274;SDS011;36472;52.170;20.884;2023-05-02T05:58:10;8.75;;;4.88;;
21274;SDS011;36472;52.170;20.884;2023-05-02T06:00:40;8.02;;;5.20;;
21274;SDS011;36472;52.170;20.884;2023-05-02T06:03:09;8.05;;;5.28;;
21274;SDS011;36472;52.170;20.884;2023-05-02T06:05:39;6.72;;;4.70;;
21274;SDS011;36472;52.170;20.884;2023-05-02T06:08:08;8.75;;;4.78;;
21274;SDS011;36472;52.170;20.884;2023-05-02T06:10:38;6.13;;;4.38;;
21274;SDS011;36472;52.170;20.884;2023-05-02T06:13:07;5.95;;;4.15;;
21274;SDS011;36472;52.170;20.884;2023-05-02T06:15:40;8.38;;;4.90;;
21274;SDS011;36472;52.170;20.884;2023-05-02T06:18:09;6.63;;;4.65;;
21274;SDS011;36472;52.170;20.884;2023-05-02T06:20:38;7.38;;;4.57;;
21274;SDS011;36472;52.170;20.884;2023-05-02T06:23:07;6.65;;;4.57;;
21274;SDS011;36472;52.170;20.884;2023-05-02T06:25:36;7.95;;;4.68;;
21274;SDS011;36472;52.170;20.884;2023-05-02T06:28:06;9.35;;;4.63;;
21274;SDS011;36472;52.170;20.884;2023-05-02T06:30:35;7.28;;;4.30;;
21274;SDS011;36472;52.170;20.884;2023-05-02T06:33:04;9.88;;;4.72;;
21274;SDS011;36472;52.170;20.884;2023-05-02T06:35:33;5.57;;;4.38;;
21274;SDS011;36472;52.170;20.884;2023-05-02T06:38:02;8.05;;;4.88;;
21274;SDS011;36472;52.170;20.884;2023-05-02T06:40:33;6.38;;;4.65;;
21274;SDS011;36472;52.170;20.884;2023-05-02T06:43:04;6.85;;;4.07;;
21274;SDS011;36472;52.170;20.884;2023-05-02T06:45:33;6.55;;;3.97;;
21274;SDS011;36472;52.170;20.884;2023-05-02T06:48:02;8.52;;;4.72;;
21274;SDS011;36472;52.170;20.884;2023-05-02T06:50:31;6.75;;;4.10;;
21274;SDS011;36472;52.170;20.884;2023-05-02T06:53:00;7.30;;;3.97;;
21274;SDS011;36472;52.170;20.884;2023-05-02T06:55:29;7.95;;;3.92;;
21274;SDS011;36472;52.170;20.884;2023-05-02T06:57:58;4.78;;;3.60;;
21274;SDS011;36472;52.170;20.884;2023-05-02T07:00:28;7.00;;;3.80;;
21274;SDS011;36472;52.170;20.884;2023-05-02T07:02:58;4.88;;;3.63;;
21274;SDS011;36472;52.170;20.884;2023-05-02T07:05:27;6.10;;;3.85;;
21274;SDS011;36472;52.170;20.884;2023-05-02T07:07:57;7.25;;;3.85;;
21274;SDS011;36472;52.170;20.884;2023-05-02T07:10:26;4.50;;;3.05;;
21274;SDS011;36472;52.170;20.884;2023-05-02T07:12:55;8.27;;;3.78;;
21274;SDS011;36472;52.170;20.884;2023-05-02T07:15:24;4.88;;;3.30;;
21274;SDS011;36472;52.170;20.884;2023-05-02T07:17:54;5.60;;;3.28;;
21274;SDS011;36472;52.170;20.884;2023-05-02T07:20:23;4.93;;;2.90;;
21274;SDS011;36472;52.170;20.884;2023-05-02T07:22:52;4.18;;;3.00;;
21274;SDS011;36472;52.170;20.884;2023-05-02T07:25:22;5.32;;;3.10;;
21274;SDS011;36472;52.170;20.884;2023-05-02T07:27:51;3.00;;;2.65;;
21274;SDS011;36472;52.170;20.884;2023-05-02T07:30:20;4.07;;;2.88;;
21274;SDS011;36472;52.170;20.884;2023-05-02T07:32:49;4.18;;;3.00;;
21274;SDS011;36472;52.170;20.884;2023-05-02T07:35:19;4.55;;;3.03;;
21274;SDS011;36472;52.170;20.884;2023-05-02T07:37:48;3.80;;;2.85;;
21274;SDS011;36472;52.170;20.884;2023-05-02T07:40:17;4.50;;;2.78;;
21274;SDS011;36472;52.170;20.884;2023-05-02T07:42:46;4.90;;;2.53;;
21274;SDS011;36472;52.170;20.884;2023-05-02T07:45:16;5.22;;;2.70;;
21274;SDS011;36472;52.170;20.884;2023-05-02T07:47:45;3.28;;;2.83;;
21274;SDS011;36472;52.170;20.884;2023-05-02T07:50:14;3.00;;;2.70;;
21274;SDS011;36472;52.170;20.884;2023-05-02T07:52:45;4.78;;;2.60;;
21274;SDS011;36472;52.170;20.884;2023-05-02T07:55:14;5.03;;;3.03;;
21274;SDS011;36472;52.170;20.884;2023-05-02T07:57:42;3.38;;;2.75;;
21274;SDS011;36472;52.170;20.884;2023-05-02T08:00:12;6.63;;;2.83;;
21274;SDS011;36472;52.170;20.884;2023-05-02T08:02:42;4.68;;;2.80;;
21274;SDS011;36472;52.170;20.884;2023-05-02T08:05:11;5.50;;;2.63;;
21274;SDS011;36472;52.170;20.884;2023-05-02T08:07:40;5.10;;;2.90;;
21274;SDS011;36472;52.170;20.884;2023-05-02T08:10:11;6.78;;;3.10;;
21274;SDS011;36472;52.170;20.884;2023-05-02T08:12:40;5.53;;;3.10;;
21274;SDS011;36472;52.170;20.884;2023-05-02T08:15:10;4.82;;;3.30;;
21274;SDS011;36472;52.170;20.884;2023-05-02T08:17:40;5.05;;;3.50;;
21274;SDS011;36472;52.170;20.884;2023-05-02T08:20:09;5.50;;;3.53;;
21274;SDS011;36472;52.170;20.884;2023-05-02T08:22:38;6.07;;;3.40;;
21274;SDS011;36472;52.170;20.884;2023-05-02T08:25:08;5.05;;;3.13;;
21274;SDS011;36472;52.170;20.884;2023-05-02T08:27:38;6.20;;;3.60;;
21274;SDS011;36472;52.170;20.884;2023-05-02T08:30:07;4.07;;;3.20;;
21274;SDS011;36472;52.170;20.884;2023-05-02T08:32:36;5.65;;;3.55;;
21274;SDS011;36472;52.170;20.884;2023-05-02T08:35:06;6.45;;;3.53;;
21274;SDS011;36472;52.170;20.884;2023-05-02T08:37:35;5.70;;;3.63;;
21274;SDS011;36472;52.170;20.884;2023-05-02T08:40:05;5.43;;;3.47;;
21274;SDS011;36472;52.170;20.884;2023-05-02T08:42:41;4.18;;;3.28;;
21274;SDS011;36472;52.170;20.884;2023-05-02T08:45:12;4.03;;;3.13;;
21274;SDS011;36472;52.170;20.884;2023-05-02T08:47:42;4.32;;;3.47;;
21274;SDS011;36472;52.170;20.884;2023-05-02T08:50:14;4.15;;;3.58;;
21274;SDS011;36472;52.170;20.884;2023-05-02T08:52:45;9.43;;;3.80;;
21274;SDS011;36472;52.170;20.884;2023-05-02T08:55:16;5.93;;;3.50;;
21274;SDS011;36472;52.170;20.884;2023-05-02T08:57:55;5.05;;;3.67;;
21274;SDS011;36472;52.170;20.884;2023-05-02T09:00:25;7.10;;;3.70;;
21274;SDS011;36472;52.170;20.884;2023-05-02T09:03:00;4.45;;;3.83;;
21274;SDS011;36472;52.170;20.884;2023-05-02T09:05:39;6.63;;;4.32;;
21274;SDS011;36472;52.170;20.884;2023-05-02T09:08:09;5.88;;;4.25;;
21274;SDS011;36472;52.170;20.884;2023-05-02T09:10:38;5.65;;;3.80;;
21274;SDS011;36472;52.170;20.884;2023-05-02T09:13:28;5.28;;;4.32;;
21274;SDS011;36472;52.170;20.884;2023-05-02T09:16:04;4.93;;;3.85;;
21274;SDS011;36472;52.170;20.884;2023-05-02T09:18:36;5.28;;;4.05;;
21274;SDS011;36472;52.170;20.884;2023-05-02T09:21:08;7.18;;;4.25;;
21274;SDS011;36472;52.170;20.884;2023-05-02T09:23:39;7.07;;;4.47;;
21274;SDS011;36472;52.170;20.884;2023-05-02T09:26:10;6.25;;;4.00;;
21274;SDS011;36472;52.170;20.884;2023-05-02T09:28:44;5.60;;;3.65;;
21274;SDS011;36472;52.170;20.884;2023-05-02T09:31:15;4.55;;;4.10;;
21274;SDS011;36472;52.170;20.884;2023-05-02T09:34:07;4.40;;;4.00;;
21274;SDS011;36472;52.170;20.884;2023-05-02T09:36:38;5.65;;;4.32;;
21274;SDS011;36472;52.170;20.884;2023-05-02T09:39:09;7.88;;;4.25;;
21274;SDS011;36472;52.170;20.884;2023-05-02T09:41:43;5.65;;;4.47;;
21274;SDS011;36472;52.170;20.884;2023-05-02T09:44:15;8.60;;;4.68;;
21274;SDS011;36472;52.170;20.884;2023-05-02T09:46:47;7.97;;;4.75;;
21274;SDS011;36472;52.170;20.884;2023-05-02T09:49:18;6.95;;;4.25;;
21274;SDS011;36472;52.170;20.884;2023-05-02T09:52:09;5.28;;;4.60;;
21274;SDS011;36472;52.170;20.884;2023-05-02T09:54:39;5.80;;;4.72;;
21274;SDS011;36472;52.170;20.884;2023-05-02T09:57:08;7.63;;;5.40;;
21274;SDS011;36472;52.170;20.884;2023-05-02T09:59:39;7.60;;;4.80;;
21274;SDS011;36472;52.170;20.884;2023-05-02T10:02:08;5.65;;;4.95;;
21274;SDS011;36472;52.170;20.884;2023-05-02T10:04:39;7.60;;;5.22;;
21274;SDS011;36472;52.170;20.884;2023-05-02T10:07:09;6.53;;;5.18;;
21274;SDS011;36472;52.170;20.884;2023-05-02T10:09:42;6.15;;;5.00;;
21274;SDS011;36472;52.170;20.884;2023-05-02T10:12:13;9.50;;;5.50;;
21274;SDS011;36472;52.170;20.884;2023-05-02T10:14:46;8.68;;;5.18;;
21274;SDS011;36472;52.170;20.884;2023-05-02T10:17:21;8.43;;;5.45;;
21274;SDS011;36472;52.170;20.884;2023-05-02T10:19:56;7.88;;;5.32;;
21274;SDS011;36472;52.170;20.884;2023-05-02T10:22:31;7.60;;;5.18;;
21274;SDS011;36472;52.170;20.884;2023-05-02T10:25:01;6.93;;;5.47;;
21274;SDS011;36472;52.170;20.884;2023-05-02T10:27:31;6.75;;;5.15;;
21274;SDS011;36472;52.170;20.884;2023-05-02T10:30:02;10.40;;;6.35;;
21274;SDS011;36472;52.170;20.884;2023-05-02T10:32:33;6.57;;;5.95;;
21274;SDS011;36472;52.170;20.884;2023-05-02T10:35:05;6.53;;;5.55;;
21274;SDS011;36472;52.170;20.884;2023-05-02T10:37:35;8.18;;;5.72;;
21274;SDS011;36472;52.170;20.884;2023-05-02T10:40:09;6.05;;;5.45;;
21274;SDS011;36472;52.170;20.884;2023-05-02T10:42:39;8.10;;;5.70;;
21274;SDS011;36472;52.170;20.884;2023-05-02T10:45:29;8.40;;;6.18;;
21274;SDS011;36472;52.170;20.884;2023-05-02T10:48:15;6.88;;;5.68;;
21274;SDS011;36472;52.170;20.884;2023-05-02T10:50:48;8.35;;;6.00;;
21274;SDS011;36472;52.170;20.884;2023-05-02T10:53:22;7.70;;;5.43;;
21274;SDS011;36472;52.170;20.884;2023-05-02T10:56:10;7.93;;;5.72;;
21274;SDS011;36472;52.170;20.884;2023-05-02T10:58:42;12.50;;;6.25;;
21274;SDS011;36472;52.170;20.884;2023-05-02T11:01:32;9.77;;;6.25;;
21274;SDS011;36472;52.170;20.884;2023-05-02T11:04:06;9.65;;;6.70;;
21274;SDS011;36472;52.170;20.884;2023-05-02T11:09:45;9.50;;;6.85;;
21274;SDS011;36472;52.170;20.884;2023-05-02T11:15:13;8.90;;;7.13;;
21274;SDS011;36472;52.170;20.884;2023-05-02T11:18:06;11.15;;;7.28;;
21274;SDS011;36472;52.170;20.884;2023-05-02T11:20:38;8.30;;;6.97;;
21274;SDS011;36472;52.170;20.884;2023-05-02T11:25:58;10.85;;;7.80;;
21274;SDS011;36472;52.170;20.884;2023-05-02T11:34:41;9.32;;;7.95;;
21274;SDS011;36472;52.170;20.884;2023-05-02T11:37:12;9.75;;;7.30;;
21274;SDS011;36472;52.170;20.884;2023-05-02T11:39:42;9.75;;;6.85;;
21274;SDS011;36472;52.170;20.884;2023-05-02T11:42:26;8.05;;;6.13;;
21274;SDS011;36472;52.170;20.884;2023-05-02T11:44:56;6.22;;;5.60;;
21274;SDS011;36472;52.170;20.884;2023-05-02T11:47:26;9.20;;;5.78;;
21274;SDS011;36472;52.170;20.884;2023-05-02T11:49:57;9.10;;;6.10;;
21274;SDS011;36472;52.170;20.884;2023-05-02T11:52:27;7.85;;;6.15;;
21274;SDS011;36472;52.170;20.884;2023-05-02T11:54:56;10.68;;;6.35;;
21274;SDS011;36472;52.170;20.884;2023-05-02T11:57:25;7.93;;;6.22;;
21274;SDS011;36472;52.170;20.884;2023-05-02T11:59:56;8.40;;;7.07;;
21274;SDS011;36472;52.170;20.884;2023-05-02T12:02:35;10.82;;;7.30;;
21274;SDS011;36472;52.170;20.884;2023-05-02T12:05:06;10.27;;;7.97;;
21274;SDS011;36472;52.170;20.884;2023-05-02T12:07:38;11.07;;;8.55;;
21274;SDS011;36472;52.170;20.884;2023-05-02T12:10:11;12.32;;;8.75;;
21274;SDS011;36472;52.170;20.884;2023-05-02T12:12:41;11.25;;;8.63;;
21274;SDS011;36472;52.170;20.884;2023-05-02T12:15:11;11.32;;;9.63;;
21274;SDS011;36472;52.170;20.884;2023-05-02T12:17:41;11.98;;;9.60;;
21274;SDS011;36472;52.170;20.884;2023-05-02T12:20:16;12.98;;;9.68;;
21274;SDS011;36472;52.170;20.884;2023-05-02T12:22:45;12.32;;;8.63;;
21274;SDS011;36472;52.170;20.884;2023-05-02T12:25:14;10.50;;;7.90;;
21274;SDS011;36472;52.170;20.884;2023-05-02T12:27:57;10.18;;;8.30;;
21274;SDS011;36472;52.170;20.884;2023-05-02T12:30:27;11.02;;;8.10;;
21274;SDS011;36472;52.170;20.884;2023-05-02T12:32:58;11.13;;;8.75;;
21274;SDS011;36472;52.170;20.884;2023-05-02T12:35:30;11.65;;;8.77;;
21274;SDS011;36472;52.170;20.884;2023-05-02T12:38:06;10.27;;;7.35;;
21274;SDS011;36472;52.170;20.884;2023-05-02T12:40:45;11.27;;;8.38;;
21274;SDS011;36472;52.170;20.884;2023-05-02T12:43:17;9.15;;;7.95;;
21274;SDS011;36472;52.170;20.884;2023-05-02T12:45:48;9.95;;;7.47;;
21274;SDS011;36472;52.170;20.884;2023-05-02T12:48:21;11.18;;;6.68;;
21274;SDS011;36472;52.170;20.884;2023-05-02T12:50:53;10.15;;;7.07;;
21274;SDS011;36472;52.170;20.884;2023-05-02T12:53:38;8.90;;;7.25;;
21274;SDS011;36472;52.170;20.884;2023-05-02T12:56:09;10.52;;;7.40;;
21274;SDS011;36472;52.170;20.884;2023-05-02T12:58:40;8.00;;;6.55;;
21274;SDS011;36472;52.170;20.884;2023-05-02T13:01:10;9.10;;;7.35;;
21274;SDS011;36472;52.170;20.884;2023-05-02T13:03:40;8.55;;;6.70;;
21274;SDS011;36472;52.170;20.884;2023-05-02T13:06:11;8.55;;;6.53;;
21274;SDS011;36472;52.170;20.884;2023-05-02T13:08:41;8.63;;;6.97;;
21274;SDS011;36472;52.170;20.884;2023-05-02T13:11:09;7.60;;;6.80;;
21274;SDS011;36472;52.170;20.884;2023-05-02T13:13:38;10.15;;;6.72;;
21274;SDS011;36472;52.170;20.884;2023-05-02T13:16:07;8.10;;;6.43;;
21274;SDS011;36472;52.170;20.884;2023-05-02T13:18:36;8.27;;;6.47;;
21274;SDS011;36472;52.170;20.884;2023-05-02T13:21:05;8.60;;;6.88;;
21274;SDS011;36472;52.170;20.884;2023-05-02T13:23:35;8.02;;;6.78;;
21274;SDS011;36472;52.170;20.884;2023-05-02T13:26:05;8.15;;;6.40;;
21274;SDS011;36472;52.170;20.884;2023-05-02T13:28:34;7.90;;;6.72;;
21274;SDS011;36472;52.170;20.884;2023-05-02T13:31:03;8.85;;;5.97;;
21274;SDS011;36472;52.170;20.884;2023-05-02T13:33:32;8.63;;;6.75;;
21274;SDS011;36472;52.170;20.884;2023-05-02T13:36:01;8.43;;;6.00;;
21274;SDS011;36472;52.170;20.884;2023-05-02T13:38:30;7.90;;;5.72;;
21274;SDS011;36472;52.170;20.884;2023-05-02T13:41:01;8.65;;;5.85;;
21274;SDS011;36472;52.170;20.884;2023-05-02T13:43:31;10.45;;;6.22;;
21274;SDS011;36472;52.170;20.884;2023-05-02T13:45:59;10.50;;;6.15;;
21274;SDS011;36472;52.170;20.884;2023-05-02T13:48:29;8.13;;;5.93;;
21274;SDS011;36472;52.170;20.884;2023-05-02T13:50:57;6.50;;;5.40;;
21274;SDS011;36472;52.170;20.884;2023-05-02T13:53:26;6.95;;;5.45;;
21274;SDS011;36472;52.170;20.884;2023-05-02T13:55:55;7.43;;;5.00;;
21274;SDS011;36472;52.170;20.884;2023-05-02T13:58:25;8.00;;;5.80;;
21274;SDS011;36472;52.170;20.884;2023-05-02T14:00:54;7.50;;;5.47;;
21274;SDS011;36472;52.170;20.884;2023-05-02T14:03:23;6.75;;;5.40;;
21274;SDS011;36472;52.170;20.884;2023-05-02T14:05:52;7.60;;;5.45;;
21274;SDS011;36472;52.170;20.884;2023-05-02T14:08:21;7.68;;;5.65;;
21274;SDS011;36472;52.170;20.884;2023-05-02T14:10:50;7.95;;;5.72;;
21274;SDS011;36472;52.170;20.884;2023-05-02T14:13:19;5.68;;;4.97;;
21274;SDS011;36472;52.170;20.884;2023-05-02T14:15:49;6.10;;;5.10;;
21274;SDS011;36472;52.170;20.884;2023-05-02T14:18:18;6.88;;;5.35;;
21274;SDS011;36472;52.170;20.884;2023-05-02T14:20:47;6.13;;;5.20;;
21274;SDS011;36472;52.170;20.884;2023-05-02T14:23:16;6.22;;;4.68;;
21274;SDS011;36472;52.170;20.884;2023-05-02T14:25:45;6.57;;;4.30;;
21274;SDS011;36472;52.170;20.884;2023-05-02T14:28:14;7.45;;;4.35;;
21274;SDS011;36472;52.170;20.884;2023-05-02T14:30:42;8.35;;;4.63;;
21274;SDS011;36472;52.170;20.884;2023-05-02T14:33:13;7.75;;;4.95;;
21274;SDS011;36472;52.170;20.884;2023-05-02T14:35:42;6.72;;;4.30;;
21274;SDS011;36472;52.170;20.884;2023-05-02T14:38:11;6.32;;;4.72;;
21274;SDS011;36472;52.170;20.884;2023-05-02T14:40:41;9.07;;;4.47;;
21274;SDS011;36472;52.170;20.884;2023-05-02T14:43:10;6.47;;;4.95;;
21274;SDS011;36472;52.170;20.884;2023-05-02T14:45:39;5.38;;;4.88;;
21274;SDS011;36472;52.170;20.884;2023-05-02T14:48:08;5.82;;;4.53;;
21274;SDS011;36472;52.170;20.884;2023-05-02T14:50:41;5.82;;;4.57;;
21274;SDS011;36472;52.170;20.884;2023-05-02T14:53:10;5.43;;;4.30;;
21274;SDS011;36472;52.170;20.884;2023-05-02T14:55:39;6.90;;;4.85;;
21274;SDS011;36472;52.170;20.884;2023-05-02T14:58:08;7.07;;;4.80;;
21274;SDS011;36472;52.170;20.884;2023-05-02T15:00:37;5.78;;;4.80;;
21274;SDS011;36472;52.170;20.884;2023-05-02T15:03:06;6.53;;;4.20;;
21274;SDS011;36472;52.170;20.884;2023-05-02T15:05:36;6.63;;;4.18;;
21274;SDS011;36472;52.170;20.884;2023-05-02T15:08:07;6.80;;;4.50;;
21274;SDS011;36472;52.170;20.884;2023-05-02T15:10:36;6.88;;;4.43;;
21274;SDS011;36472;52.170;20.884;2023-05-02T15:13:05;6.50;;;4.40;;